Time;durP1;ratioP1;P1;durP2;ratioP2;P2;SDS_P1;SDS_P2;PMS_P1;PMS_P2;Temp;Humidity;BMP_temperature;BMP_pressure;BME280_temperature;BME280_humidity;BME280_pressure;Samples;Min_cycle;Max_cycle;Signal;HPM_P1;HPM_P2
2021/06/10 00:01:42;;;;;;;6.93;3.33;;;;;;;;;;5110280;28;20380;-72
2021/06/10 00:04:54;;;;;;;5.80;3.45;;;;;;;;;;5105789;27;20413;-71
2021/06/10 00:07:20;;;;;;;5.65;3.58;;;;;;;;;;5090068;28;20468;-71
2021/06/10 00:09:47;;;;;;;5.95;2.97;;;;;;;;;;5088430;28;20016;-70
2021/06/10 00:12:15;;;;;;;5.05;3.40;;;;;;;;;;5088794;28;20028;-71
2021/06/10 00:15:34;;;;;;;5.53;3.08;;;;;;;;;;5126312;27;20380;-71
2021/06/10 00:18:01;;;;;;;4.00;2.85;;;;;;;;;;5110090;28;20024;-71
2021/06/10 00:22:36;;;;;;;5.38;3.05;;;;;;;;;;5126357;27;20389;-70
2021/06/10 00:25:02;;;;;;;5.03;2.70;;;;;;;;;;5110112;28;20436;-70
2021/06/10 00:27:28;;;;;;;4.40;2.70;;;;;;;;;;5110420;28;20020;-70
2021/06/10 00:33:56;;;;;;;8.18;3.40;;;;;;;;;;5126304;27;20376;-70
2021/06/10 00:36:22;;;;;;;6.07;3.30;;;;;;;;;;5109255;28;20112;-70
2021/06/10 00:38:48;;;;;;;6.05;3.30;;;;;;;;;;5110045;28;20039;-71
2021/06/10 00:41:15;;;;;;;7.25;3.60;;;;;;;;;;5110704;28;20546;-70
2021/06/10 00:43:41;;;;;;;8.32;3.63;;;;;;;;;;5109157;28;20020;-70
2021/06/10 00:46:07;;;;;;;5.65;3.13;;;;;;;;;;5108621;28;20503;-71
2021/06/10 00:51:20;;;;;;;8.00;3.15;;;;;;;;;;5125985;27;20381;-71
2021/06/10 00:53:47;;;;;;;5.97;2.65;;;;;;;;;;5110484;28;20047;-71
2021/06/10 00:56:13;;;;;;;7.28;3.47;;;;;;;;;;5110460;28;20356;-71
2021/06/10 00:59:08;;;;;;;6.95;4.10;;;;;;;;;;5125958;27;20384;-71
2021/06/10 01:01:35;;;;;;;7.63;3.08;;;;;;;;;;5109408;28;20024;-70
2021/06/10 01:04:14;;;;;;;6.65;3.15;;;;;;;;;;5126445;27;20381;-70
2021/06/10 01:06:45;;;;;;;5.45;3.28;;;;;;;;;;5110049;28;20059;-70
2021/06/10 01:09:23;;;;;;;6.75;3.85;;;;;;;;;;5110407;28;20016;-70
2021/06/10 01:11:58;;;;;;;6.05;3.38;;;;;;;;;;5111908;28;20107;-70
2021/06/10 01:19:41;;;;;;;5.28;3.35;;;;;;;;;;5105380;27;20382;-70
2021/06/10 01:22:19;;;;;;;8.00;3.53;;;;;;;;;;5089077;28;20024;-70
2021/06/10 01:26:52;;;;;;;8.00;3.45;;;;;;;;;;5132890;27;20114;-70
2021/06/10 01:29:19;;;;;;;5.00;3.55;;;;;;;;;;5130892;28;20033;-70
2021/06/10 01:31:45;;;;;;;5.95;3.40;;;;;;;;;;5130963;28;20028;-70
2021/06/10 01:38:15;;;;;;;4.85;2.85;;;;;;;;;;5126309;27;20379;-70
2021/06/10 01:40:42;;;;;;;5.00;2.33;;;;;;;;;;5109036;28;20388;-70
2021/06/10 01:45:19;;;;;;;5.40;3.13;;;;;;;;;;5126474;27;20369;-70
2021/06/10 01:47:46;;;;;;;7.80;2.70;;;;;;;;;;5108817;28;20031;-70
2021/06/10 01:53:14;;;;;;;4.00;2.25;;;;;;;;;;5126310;27;20400;-70
2021/06/10 01:55:40;;;;;;;4.90;2.72;;;;;;;;;;5108782;28;20483;-71
2021/06/10 01:58:07;;;;;;;5.05;2.78;;;;;;;;;;5110474;28;20028;-72
2021/06/10 02:01:00;;;;;;;5.35;3.30;;;;;;;;;;5126424;27;20400;-71
2021/06/10 02:05:27;;;;;;;5.32;3.08;;;;;;;;;;5133385;27;20630;-70
2021/06/10 02:09:34;;;;;;;7.60;3.20;;;;;;;;;;5126079;27;20400;-70
2021/06/10 02:13:33;;;;;;;5.90;2.97;;;;;;;;;;5126360;27;20401;-70
2021/06/10 02:22:13;;;;;;;7.63;2.92;;;;;;;;;;5126656;27;20380;-70
2021/06/10 02:25:55;;;;;;;5.85;2.90;;;;;;;;;;5126293;27;20408;-70
2021/06/10 02:28:21;;;;;;;5.63;2.80;;;;;;;;;;5109147;28;20038;-70
2021/06/10 02:30:48;;;;;;;5.22;2.65;;;;;;;;;;5108792;28;20055;-70
2021/06/10 02:33:16;;;;;;;4.47;2.70;;;;;;;;;;5109144;28;20055;-70
2021/06/10 02:36:55;;;;;;;8.02;3.00;;;;;;;;;;5129379;27;20500;-71
2021/06/10 02:40:14;;;;;;;4.97;2.90;;;;;;;;;;5126505;27;20373;-70
2021/06/10 02:43:43;;;;;;;4.93;2.72;;;;;;;;;;5125981;27;20376;-70
2021/06/10 02:50:51;;;;;;;6.10;2.85;;;;;;;;;;5126016;27;20743;-70
2021/06/10 02:53:20;;;;;;;5.85;3.10;;;;;;;;;;5110536;28;20032;-71
2021/06/10 02:55:47;;;;;;;6.88;3.80;;;;;;;;;;5110476;28;20028;-70
2021/06/10 02:58:18;;;;;;;5.47;3.00;;;;;;;;;;5108713;28;20027;-71
2021/06/10 03:02:49;;;;;;;8.45;4.30;;;;;;;;;;5130038;27;20135;-70
2021/06/10 03:07:02;;;;;;;6.68;3.95;;;;;;;;;;5126494;27;20373;-70
2021/06/10 03:11:29;;;;;;;9.82;3.58;;;;;;;;;;5126195;27;20404;-70
2021/06/10 03:15:16;;;;;;;7.43;3.75;;;;;;;;;;5126259;27;20381;-70
2021/06/10 03:17:43;;;;;;;6.68;3.60;;;;;;;;;;5110302;28;20376;-70
2021/06/10 03:23:47;;;;;;;7.45;3.88;;;;;;;;;;5126770;27;20734;-70
2021/06/10 03:26:44;;;;;;;7.10;4.18;;;;;;;;;;5125889;27;20373;-71
2021/06/10 03:29:11;;;;;;;7.18;4.13;;;;;;;;;;5109158;28;20111;-70
2021/06/10 03:33:46;;;;;;;6.88;3.67;;;;;;;;;;5125854;27;20404;-71
2021/06/10 03:36:13;;;;;;;5.93;3.97;;;;;;;;;;5110536;28;20074;-71
2021/06/10 03:38:40;;;;;;;7.10;3.85;;;;;;;;;;5109117;28;20112;-71
2021/06/10 03:41:20;;;;;;;6.45;4.10;;;;;;;;;;5126146;27;20136;-71
2021/06/10 03:43:47;;;;;;;6.88;3.70;;;;;;;;;;5110689;28;20078;-71
2021/06/10 03:46:13;;;;;;;6.25;3.65;;;;;;;;;;5109208;28;20383;-70
2021/06/10 03:49:51;;;;;;;7.00;4.03;;;;;;;;;;5126255;27;20380;-71
2021/06/10 03:52:17;;;;;;;6.43;3.88;;;;;;;;;;5110548;28;20053;-71
2021/06/10 03:54:43;;;;;;;9.23;4.20;;;;;;;;;;5110020;28;20031;-71
2021/06/10 03:57:10;;;;;;;6.30;3.45;;;;;;;;;;5110345;28;20480;-71
2021/06/10 04:01:16;;;;;;;7.95;4.35;;;;;;;;;;5126039;27;20468;-71
2021/06/10 04:04:45;;;;;;;9.13;3.53;;;;;;;;;;5126335;27;20381;-71
2021/06/10 04:08:17;;;;;;;6.80;3.60;;;;;;;;;;5125938;27;20737;-71
2021/06/10 04:10:43;;;;;;;7.07;4.05;;;;;;;;;;5109155;28;20035;-71
2021/06/10 04:13:59;;;;;;;11.45;3.45;;;;;;;;;;5126244;27;20376;-71
2021/06/10 04:16:36;;;;;;;6.55;3.45;;;;;;;;;;5125980;27;20381;-70
2021/06/10 04:19:03;;;;;;;5.32;3.08;;;;;;;;;;5109137;28;20350;-71
2021/06/10 04:21:29;;;;;;;6.50;3.58;;;;;;;;;;5110644;28;20016;-71
2021/06/10 04:23:55;;;;;;;6.07;3.25;;;;;;;;;;5110503;28;20020;-71
2021/06/10 04:26:21;;;;;;;5.10;2.92;;;;;;;;;;5110412;28;20052;-71
2021/06/10 04:28:48;;;;;;;6.88;4.00;;;;;;;;;;5110327;28;20020;-71
2021/06/10 04:31:18;;;;;;;6.65;3.50;;;;;;;;;;5110366;28;20024;-71
2021/06/10 04:34:39;;;;;;;8.80;3.78;;;;;;;;;;5126372;27;20377;-71
2021/06/10 04:38:15;;;;;;;12.10;5.07;;;;;;;;;;5125885;27;20381;-71
2021/06/10 04:40:41;;;;;;;10.18;4.85;;;;;;;;;;5110558;28;20028;-71
2021/06/10 04:43:08;;;;;;;7.32;4.53;;;;;;;;;;5108887;28;20073;-70
2021/06/10 04:45:34;;;;;;;7.43;4.50;;;;;;;;;;5110450;28;20024;-71
2021/06/10 04:48:00;;;;;;;7.93;4.47;;;;;;;;;;5108996;28;20028;-70
2021/06/10 04:50:28;;;;;;;8.00;4.13;;;;;;;;;;5108509;28;20023;-70
2021/06/10 04:52:55;;;;;;;6.15;3.78;;;;;;;;;;5108996;28;20111;-71
2021/06/10 04:56:18;;;;;;;5.43;3.63;;;;;;;;;;5126295;27;20377;-71
2021/06/10 04:58:44;;;;;;;8.23;4.43;;;;;;;;;;5108716;28;20024;-70
2021/06/10 05:03:48;;;;;;;7.28;3.65;;;;;;;;;;5126660;27;20865;-73
2021/06/10 05:06:14;;;;;;;10.32;3.67;;;;;;;;;;5108735;28;20369;-69
2021/06/10 05:08:40;;;;;;;9.77;3.45;;;;;;;;;;5109045;28;20028;-68
2021/06/10 05:11:07;;;;;;;11.32;2.92;;;;;;;;;;5110019;28;20061;-68
2021/06/10 05:13:33;;;;;;;7.28;4.28;;;;;;;;;;5110299;28;20020;-68
2021/06/10 05:16:16;;;;;;;7.55;4.05;;;;;;;;;;5126395;27;20865;-68
2021/06/10 05:19:24;;;;;;;8.00;3.50;;;;;;;;;;5150100;27;20113;-68
2021/06/10 05:21:50;;;;;;;14.02;4.07;;;;;;;;;;5128470;28;20110;-68
2021/06/10 05:24:19;;;;;;;7.55;3.83;;;;;;;;;;5129335;28;20471;-68
2021/06/10 05:26:45;;;;;;;14.80;4.03;;;;;;;;;;5129963;27;20025;-69
2021/06/10 05:29:11;;;;;;;8.20;3.88;;;;;;;;;;5129124;28;20023;-68
2021/06/10 05:31:37;;;;;;;10.07;3.38;;;;;;;;;;5124458;28;20039;-68
2021/06/10 05:34:04;;;;;;;7.70;3.95;;;;;;;;;;5113187;28;20035;-68
2021/06/10 05:36:30;;;;;;;6.95;4.43;;;;;;;;;;5125354;28;20050;-68
2021/06/10 05:38:56;;;;;;;4.95;3.70;;;;;;;;;;5117865;27;20052;-68
2021/06/10 05:41:22;;;;;;;6.97;3.72;;;;;;;;;;5118327;28;20043;-68
2021/06/10 05:43:49;;;;;;;5.85;3.28;;;;;;;;;;5118768;28;20027;-68
2021/06/10 05:46:15;;;;;;;7.20;4.28;;;;;;;;;;5107971;28;20027;-68
2021/06/10 05:48:41;;;;;;;7.32;3.95;;;;;;;;;;5107862;28;20048;-68
2021/06/10 05:51:08;;;;;;;7.57;4.07;;;;;;;;;;5109349;28;20061;-69
2021/06/10 05:53:36;;;;;;;5.75;3.60;;;;;;;;;;5109119;28;20968;-68
2021/06/10 05:56:02;;;;;;;6.63;3.75;;;;;;;;;;5106576;28;20471;-68
2021/06/10 05:58:29;;;;;;;8.00;3.60;;;;;;;;;;5108050;28;20031;-68
2021/06/10 06:00:55;;;;;;;8.05;4.50;;;;;;;;;;5106916;28;20031;-69
2021/06/10 06:05:34;;;;;;;6.88;2.97;;;;;;;;;;5133316;27;20114;-73
2021/06/10 06:08:00;;;;;;;6.32;2.85;;;;;;;;;;5107089;28;20037;-73
2021/06/10 06:12:23;;;;;;;6.93;3.42;;;;;;;;;;5124761;27;20737;-73
2021/06/10 06:14:50;;;;;;;5.80;3.53;;;;;;;;;;5109212;28;20043;-74
2021/06/10 06:17:31;;;;;;;23.25;4.43;;;;;;;;;;5125837;27;20151;-73
2021/06/10 06:20:00;;;;;;;9.13;3.88;;;;;;;;;;5110228;28;20048;-74
2021/06/10 06:23:21;;;;;;;7.55;3.92;;;;;;;;;;5123973;27;20741;-74
2021/06/10 06:25:47;;;;;;;8.45;3.88;;;;;;;;;;5109784;28;20055;-75
2021/06/10 06:28:13;;;;;;;5.15;3.40;;;;;;;;;;5109816;28;20024;-73
2021/06/10 06:30:39;;;;;;;5.72;3.13;;;;;;;;;;5108599;28;20024;-76
2021/06/10 06:33:05;;;;;;;9.88;4.55;;;;;;;;;;5105884;28;20020;-75
2021/06/10 06:35:32;;;;;;;11.38;3.35;;;;;;;;;;5107910;28;20090;-76
2021/06/10 06:37:58;;;;;;;8.30;4.00;;;;;;;;;;5108361;28;20460;-76
2021/06/10 06:40:26;;;;;;;9.07;3.78;;;;;;;;;;5108500;28;20020;-77
2021/06/10 06:42:53;;;;;;;5.00;3.00;;;;;;;;;;5106914;28;20028;-74
2021/06/10 06:46:03;;;;;;;5.40;3.33;;;;;;;;;;5124254;27;20378;-75
2021/06/10 06:50:44;;;;;;;8.90;3.03;;;;;;;;;;5105297;27;20375;-73
2021/06/10 06:55:37;;;;;;;7.38;4.70;;;;;;;;;;5120372;27;20381;-76
2021/06/10 06:58:03;;;;;;;7.57;3.28;;;;;;;;;;5110083;28;20523;-76
2021/06/10 07:00:29;;;;;;;4.70;3.05;;;;;;;;;;5109435;28;20077;-77
2021/06/10 07:03:20;;;;;;;5.93;3.28;;;;;;;;;;5143087;27;263459;-73
2021/06/10 07:05:46;;;;;;;5.43;2.53;;;;;;;;;;5130412;28;20054;-75
2021/06/10 07:08:12;;;;;;;6.10;3.00;;;;;;;;;;5130747;28;20035;-75
2021/06/10 07:10:39;;;;;;;5.80;2.63;;;;;;;;;;5128978;28;20031;-75
2021/06/10 07:13:05;;;;;;;9.82;3.10;;;;;;;;;;5129762;28;20023;-74
2021/06/10 07:16:03;;;;;;;5.18;2.70;;;;;;;;;;5123156;27;20724;-74
2021/06/10 07:20:21;;;;;;;5.47;3.25;;;;;;;;;;5149493;27;20834;-75
2021/06/10 07:23:09;;;;;;;4.63;2.83;;;;;;;;;;5120266;28;20391;-74
2021/06/10 07:25:34;;;;;;;4.95;3.15;;;;;;;;;;5110064;28;20032;-74
2021/06/10 07:28:04;;;;;;;7.30;2.33;;;;;;;;;;5110414;28;20031;-75
2021/06/10 07:30:39;;;;;;;5.90;2.60;;;;;;;;;;5108068;28;20024;-73
2021/06/10 07:33:06;;;;;;;4.78;2.53;;;;;;;;;;5109308;28;20016;-74
2021/06/10 07:35:33;;;;;;;4.53;2.75;;;;;;;;;;5108332;28;20369;-73
2021/06/10 07:38:00;;;;;;;6.93;2.60;;;;;;;;;;5108342;28;20041;-73
2021/06/10 07:40:28;;;;;;;7.35;3.15;;;;;;;;;;5109527;28;20024;-73
2021/06/10 07:44:37;;;;;;;5.10;3.05;;;;;;;;;;5124910;27;20385;-73
2021/06/10 07:48:01;;;;;;;7.80;3.22;;;;;;;;;;5123810;27;20374;-74
2021/06/10 07:50:32;;;;;;;4.95;2.45;;;;;;;;;;5108100;28;20028;-74
2021/06/10 07:53:01;;;;;;;4.50;2.72;;;;;;;;;;5106695;28;20052;-74
2021/06/10 07:55:28;;;;;;;4.63;2.60;;;;;;;;;;5106346;28;20032;-74
2021/06/10 07:57:55;;;;;;;5.93;3.00;;;;;;;;;;5109515;28;20048;-73
2021/06/10 08:00:23;;;;;;;5.53;3.20;;;;;;;;;;5107794;28;20028;-73
2021/06/10 08:04:42;;;;;;;4.15;2.72;;;;;;;;;;5125840;27;20384;-73
2021/06/10 08:07:11;;;;;;;4.25;2.78;;;;;;;;;;5109149;28;20115;-74
2021/06/10 08:11:03;;;;;;;4.93;2.58;;;;;;;;;;5122466;27;20615;-74
2021/06/10 08:13:29;;;;;;;3.70;2.63;;;;;;;;;;5108287;28;20160;-75
2021/06/10 08:15:56;;;;;;;4.05;2.67;;;;;;;;;;5107925;28;20361;-74
2021/06/10 08:18:22;;;;;;;4.50;2.50;;;;;;;;;;5108356;28;20662;-74
2021/06/10 08:20:48;;;;;;;3.78;2.60;;;;;;;;;;5107979;28;20073;-74
2021/06/10 08:23:16;;;;;;;6.03;3.00;;;;;;;;;;5107114;28;20107;-74
2021/06/10 08:25:45;;;;;;;5.43;3.10;;;;;;;;;;5109774;28;20020;-75
2021/06/10 08:28:12;;;;;;;6.45;3.53;;;;;;;;;;5109572;28;20024;-75
2021/06/10 08:30:38;;;;;;;6.82;3.25;;;;;;;;;;5108618;28;20488;-74
2021/06/10 08:33:05;;;;;;;5.70;2.88;;;;;;;;;;5108304;28;20074;-71
2021/06/10 08:35:31;;;;;;;4.45;2.97;;;;;;;;;;5106040;28;20099;-71
2021/06/10 08:37:58;;;;;;;4.53;2.70;;;;;;;;;;5108195;28;20070;-72
2021/06/10 08:40:25;;;;;;;7.28;2.83;;;;;;;;;;5108094;28;20030;-72
2021/06/10 08:42:51;;;;;;;3.33;2.30;;;;;;;;;;5107603;28;20023;-71
2021/06/10 08:45:19;;;;;;;6.68;3.25;;;;;;;;;;5108562;28;20027;-72
2021/06/10 08:47:47;;;;;;;6.18;3.40;;;;;;;;;;5109594;28;20024;-72
2021/06/10 08:50:18;;;;;;;3.85;2.78;;;;;;;;;;5108903;28;20143;-72
2021/06/10 08:52:44;;;;;;;5.80;3.85;;;;;;;;;;5109587;28;20027;-72
2021/06/10 08:55:12;;;;;;;4.63;3.00;;;;;;;;;;5109326;28;20140;-71
2021/06/10 08:57:38;;;;;;;5.22;2.78;;;;;;;;;;5107696;28;20019;-71
2021/06/10 09:01:22;;;;;;;8.95;3.35;;;;;;;;;;5124263;27;20148;-70
2021/06/10 09:03:49;;;;;;;6.00;3.17;;;;;;;;;;5127900;28;20178;-71
2021/06/10 09:06:17;;;;;;;5.72;3.38;;;;;;;;;;5128395;27;20463;-71
2021/06/10 09:08:45;;;;;;;8.40;5.72;;;;;;;;;;5127343;27;20034;-72
2021/06/10 09:11:13;;;;;;;7.63;3.10;;;;;;;;;;5126504;28;20028;-71
2021/06/10 09:13:50;;;;;;;6.05;2.78;;;;;;;;;;5126535;28;20110;-70
2021/06/10 09:16:22;;;;;;;5.15;2.95;;;;;;;;;;5129702;27;20070;-70
2021/06/10 09:18:56;;;;;;;6.33;3.63;;;;;;;;;;5129969;27;20383;-72
2021/06/10 09:21:26;;;;;;;17.10;5.95;;;;;;;;;;5130210;27;20073;-68
2021/06/10 09:23:52;;;;;;;4.53;2.65;;;;;;;;;;5129299;28;20019;-68
2021/06/10 09:26:18;;;;;;;9.52;3.80;;;;;;;;;;5129900;28;20503;-68
2021/06/10 09:28:50;;;;;;;4.53;2.72;;;;;;;;;;5130291;28;20386;-74
2021/06/10 09:31:30;;;;;;;5.83;2.73;;;;;;;;;;5128908;27;20475;-71
2021/06/10 09:33:56;;;;;;;4.15;2.75;;;;;;;;;;5130062;27;20019;-75
2021/06/10 09:36:24;;;;;;;5.45;2.83;;;;;;;;;;5125343;27;20038;-74
2021/06/10 09:39:10;;;;;;;5.68;2.63;;;;;;;;;;5129066;27;20023;-73
2021/06/10 09:41:56;;;;;;;4.35;2.83;;;;;;;;;;5129027;28;20088;-73
2021/06/10 09:44:42;;;;;;;7.18;3.10;;;;;;;;;;5109599;28;20138;-73
2021/06/10 09:47:09;;;;;;;4.25;2.47;;;;;;;;;;5127746;28;20024;-69
2021/06/10 09:49:36;;;;;;;5.55;3.08;;;;;;;;;;5127985;28;20080;-69
2021/06/10 09:52:02;;;;;;;11.70;4.72;;;;;;;;;;5127476;27;20101;-69
2021/06/10 09:54:39;;;;;;;11.75;4.75;;;;;;;;;;5126116;27;20019;-69
2021/06/10 09:57:05;;;;;;;9.55;4.80;;;;;;;;;;5124181;28;20019;-69
2021/06/10 09:59:47;;;;;;;9.55;4.53;;;;;;;;;;5131937;27;20459;-68
2021/06/10 10:02:19;;;;;;;12.23;4.57;;;;;;;;;;5126975;27;20494;-65
2021/06/10 10:05:00;;;;;;;10.27;4.82;;;;;;;;;;5142628;27;20418;-66
2021/06/10 10:07:27;;;;;;;9.02;3.80;;;;;;;;;;5128102;28;20047;-68
2021/06/10 10:09:56;;;;;;;9.18;4.75;;;;;;;;;;5128722;28;20487;-67
2021/06/10 10:12:22;;;;;;;9.23;4.22;;;;;;;;;;5098582;28;20051;-69
2021/06/10 10:14:49;;;;;;;10.05;4.97;;;;;;;;;;5114671;28;20052;-67
2021/06/10 10:17:15;;;;;;;10.77;4.88;;;;;;;;;;5115283;28;20023;-67
2021/06/10 10:19:41;;;;;;;7.57;3.65;;;;;;;;;;5115396;28;20024;-67
2021/06/10 10:22:10;;;;;;;9.40;3.65;;;;;;;;;;5115389;28;20030;-67
2021/06/10 10:24:38;;;;;;;5.68;2.92;;;;;;;;;;5115484;28;20103;-66
2021/06/10 10:27:05;;;;;;;5.28;2.80;;;;;;;;;;5096209;28;20031;-66
2021/06/10 10:29:32;;;;;;;6.10;2.80;;;;;;;;;;5113261;28;20501;-69
2021/06/10 10:31:58;;;;;;;5.65;2.55;;;;;;;;;;5095283;28;20023;-68
2021/06/10 10:34:29;;;;;;;5.18;3.30;;;;;;;;;;5113251;28;20024;-67
2021/06/10 10:36:56;;;;;;;6.38;3.00;;;;;;;;;;5112341;28;20012;-68
2021/06/10 10:39:34;;;;;;;9.30;3.55;;;;;;;;;;5112894;28;20030;-67
2021/06/10 10:42:01;;;;;;;5.85;3.10;;;;;;;;;;5113064;28;20038;-69
2021/06/10 10:44:30;;;;;;;3.35;2.55;;;;;;;;;;5113237;28;20031;-67
2021/06/10 10:47:08;;;;;;;6.60;2.55;;;;;;;;;;5113452;28;20012;-68
2021/06/10 10:49:43;;;;;;;2.30;1.67;;;;;;;;;;5094833;28;20034;-66
2021/06/10 10:52:16;;;;;;;2.47;1.27;;;;;;;;;;5109768;27;20531;-66
2021/06/10 10:54:51;;;;;;;1.83;1.40;;;;;;;;;;5124557;27;20023;-66
2021/06/10 10:57:41;;;;;;;2.53;1.40;;;;;;;;;;5154613;27;20034;-70
2021/06/10 11:00:09;;;;;;;1.92;1.02;;;;;;;;;;5129289;27;20043;-71
2021/06/10 11:02:41;;;;;;;2.17;0.98;;;;;;;;;;5116652;27;20019;-73
2021/06/10 11:05:11;;;;;;;4.53;3.30;;;;;;;;;;5134499;27;20019;-71
2021/06/10 11:07:40;;;;;;;2.08;1.20;;;;;;;;;;5135181;27;20475;-71
2021/06/10 11:10:08;;;;;;;3.28;1.42;;;;;;;;;;5134742;27;20230;-71
2021/06/10 11:12:41;;;;;;;1.15;1.00;;;;;;;;;;5116595;27;20102;-72
2021/06/10 11:15:09;;;;;;;1.42;0.93;;;;;;;;;;5135146;27;20383;-71
2021/06/10 11:17:44;;;;;;;2.85;1.55;;;;;;;;;;5116188;27;20080;-71
2021/06/10 11:20:13;;;;;;;3.40;1.25;;;;;;;;;;5116643;27;20062;-71
2021/06/10 11:22:41;;;;;;;1.63;1.13;;;;;;;;;;5115519;28;20023;-69
2021/06/10 11:25:08;;;;;;;3.90;1.00;;;;;;;;;;5133961;27;20023;-70
2021/06/10 11:27:35;;;;;;;2.38;0.90;;;;;;;;;;5134500;27;20019;-70
2021/06/10 11:30:08;;;;;;;2.65;1.10;;;;;;;;;;5133183;27;20102;-70
2021/06/10 11:32:35;;;;;;;2.47;1.30;;;;;;;;;;5132454;27;20031;-72
2021/06/10 11:35:01;;;;;;;4.28;1.17;;;;;;;;;;5132834;27;20011;-71
2021/06/10 11:37:29;;;;;;;2.03;0.90;;;;;;;;;;5132788;27;20051;-71
2021/06/10 11:39:56;;;;;;;2.15;0.80;;;;;;;;;;5106972;28;20399;-71
2021/06/10 11:42:24;;;;;;;3.50;0.95;;;;;;;;;;5112932;28;20387;-72
2021/06/10 11:44:51;;;;;;;1.20;0.70;;;;;;;;;;5113036;28;20055;-71
2021/06/10 11:47:21;;;;;;;1.17;0.88;;;;;;;;;;5113970;28;20020;-72
2021/06/10 11:49:47;;;;;;;1.42;0.73;;;;;;;;;;5113892;28;20475;-72
2021/06/10 11:52:13;;;;;;;4.03;0.90;;;;;;;;;;5113048;28;20098;-72
2021/06/10 11:54:59;;;;;;;2.20;0.98;;;;;;;;;;5111487;28;20027;-72
2021/06/10 11:57:29;;;;;;;0.50;0.50;;;;;;;;;;5113795;28;20419;-72
2021/06/10 11:59:55;;;;;;;0.98;0.77;;;;;;;;;;5113314;28;20056;-72
2021/06/10 12:02:25;;;;;;;0.68;0.45;;;;;;;;;;5113852;28;20063;-72
2021/06/10 12:05:05;;;;;;;1.30;0.73;;;;;;;;;;5113475;28;20020;-71
2021/06/10 12:07:32;;;;;;;4.05;0.98;;;;;;;;;;5113484;28;20058;-72
2021/06/10 12:09:59;;;;;;;2.40;0.77;;;;;;;;;;5113513;28;20026;-72
2021/06/10 12:12:42;;;;;;;1.38;0.70;;;;;;;;;;5113626;28;20031;-72
2021/06/10 12:15:09;;;;;;;2.63;0.90;;;;;;;;;;5113374;28;20027;-72
2021/06/10 12:17:54;;;;;;;0.68;0.63;;;;;;;;;;5112063;28;20028;-71
2021/06/10 12:20:23;;;;;;;0.98;0.70;;;;;;;;;;5113202;28;20028;-72
2021/06/10 12:22:49;;;;;;;2.42;1.20;;;;;;;;;;5113591;28;20023;-71
2021/06/10 12:25:20;;;;;;;4.32;1.20;;;;;;;;;;5094836;28;20127;-71
2021/06/10 12:27:47;;;;;;;1.00;0.80;;;;;;;;;;5112829;28;20016;-72
2021/06/10 12:30:31;;;;;;;1.45;0.80;;;;;;;;;;5113211;28;20055;-73
2021/06/10 12:33:11;;;;;;;4.32;1.50;;;;;;;;;;5113728;28;20076;-72
2021/06/10 12:35:38;;;;;;;2.28;1.13;;;;;;;;;;5112633;28;20034;-72
2021/06/10 12:38:04;;;;;;;2.90;1.10;;;;;;;;;;5094947;28;20035;-72
2021/06/10 12:40:38;;;;;;;1.58;1.08;;;;;;;;;;5110971;27;20063;-71
2021/06/10 12:43:09;;;;;;;4.07;1.20;;;;;;;;;;5114835;27;20053;-71
2021/06/10 12:45:36;;;;;;;4.85;1.45;;;;;;;;;;5133257;27;20050;-71
2021/06/10 12:48:02;;;;;;;2.80;1.55;;;;;;;;;;5132123;27;20016;-72
2021/06/10 12:50:29;;;;;;;3.40;1.90;;;;;;;;;;5131087;27;20356;-72
2021/06/10 12:52:55;;;;;;;10.18;1.77;;;;;;;;;;5124906;27;20012;-71
2021/06/10 12:55:28;;;;;;;3.70;1.23;;;;;;;;;;5129518;27;20087;-71
2021/06/10 12:57:59;;;;;;;3.47;2.05;;;;;;;;;;5113206;28;20106;-72
2021/06/10 13:00:32;;;;;;;2.10;1.40;;;;;;;;;;5130951;28;20047;-72
2021/06/10 13:03:04;;;;;;;4.28;1.42;;;;;;;;;;5111996;28;20315;-72
2021/06/10 13:05:30;;;;;;;1.67;1.02;;;;;;;;;;5131285;28;20026;-71
2021/06/10 13:07:58;;;;;;;4.53;1.55;;;;;;;;;;5113797;28;20039;-71
2021/06/10 13:10:38;;;;;;;2.13;1.08;;;;;;;;;;5132015;28;20019;-71
2021/06/10 13:13:06;;;;;;;4.60;1.40;;;;;;;;;;5113114;28;20070;-71
2021/06/10 13:15:33;;;;;;;12.10;1.63;;;;;;;;;;5113302;28;20059;-71
2021/06/10 13:18:10;;;;;;;1.45;1.13;;;;;;;;;;5131617;28;20051;-71
2021/06/10 13:20:43;;;;;;;2.38;1.27;;;;;;;;;;5114217;28;20053;-71
2021/06/10 13:23:13;;;;;;;2.05;1.52;;;;;;;;;;5133082;28;20033;-71
2021/06/10 13:25:40;;;;;;;2.50;1.13;;;;;;;;;;5114477;28;20159;-72
2021/06/10 13:28:19;;;;;;;5.35;1.52;;;;;;;;;;5133184;28;20428;-71
2021/06/10 13:30:46;;;;;;;8.13;1.88;;;;;;;;;;5131870;28;20023;-71
2021/06/10 13:33:20;;;;;;;6.78;1.30;;;;;;;;;;5131342;28;20038;-71
2021/06/10 13:35:48;;;;;;;1.55;1.02;;;;;;;;;;5112696;28;20023;-72
2021/06/10 13:38:14;;;;;;;1.10;0.80;;;;;;;;;;5130060;28;20047;-73
2021/06/10 13:40:40;;;;;;;1.13;0.70;;;;;;;;;;5112702;28;20503;-72
2021/06/10 13:43:07;;;;;;;0.65;0.60;;;;;;;;;;5132576;28;20019;-72
2021/06/10 13:45:33;;;;;;;4.57;1.13;;;;;;;;;;5131604;27;20478;-72
2021/06/10 13:48:00;;;;;;;1.50;0.60;;;;;;;;;;5134762;27;20034;-72
2021/06/10 13:50:27;;;;;;;3.10;1.02;;;;;;;;;;5115798;27;20387;-72
2021/06/10 13:52:53;;;;;;;1.85;0.52;;;;;;;;;;5115217;27;20075;-72
2021/06/10 13:55:20;;;;;;;1.27;0.65;;;;;;;;;;5116237;27;20033;-71
2021/06/10 13:57:47;;;;;;;2.13;0.50;;;;;;;;;;5135073;27;20024;-71
2021/06/10 14:00:15;;;;;;;0.70;0.55;;;;;;;;;;5134686;27;20039;-72
2021/06/10 14:02:41;;;;;;;2.75;0.70;;;;;;;;;;5135548;27;20023;-72
2021/06/10 14:05:08;;;;;;;1.80;0.98;;;;;;;;;;5135855;27;20035;-72
2021/06/10 14:07:34;;;;;;;3.13;0.98;;;;;;;;;;5136349;27;20478;-72
2021/06/10 14:10:00;;;;;;;0.57;0.57;;;;;;;;;;5136137;27;20106;-73
2021/06/10 14:12:26;;;;;;;1.35;0.60;;;;;;;;;;5117502;27;20508;-72
2021/06/10 14:14:53;;;;;;;1.35;0.82;;;;;;;;;;5132962;27;20027;-72
2021/06/10 14:17:19;;;;;;;3.17;0.80;;;;;;;;;;5133070;27;20051;-72
2021/06/10 14:19:46;;;;;;;1.13;0.80;;;;;;;;;;5114589;27;20027;-72
2021/06/10 14:22:12;;;;;;;1.45;0.70;;;;;;;;;;5115241;27;20029;-72
2021/06/10 14:24:42;;;;;;;1.23;0.82;;;;;;;;;;5133671;27;20019;-72
2021/06/10 14:27:10;;;;;;;1.73;0.90;;;;;;;;;;5115035;27;20486;-72
2021/06/10 14:32:21;;;;;;;1.90;0.80;;;;;;;;;;5134482;27;20114;-71
2021/06/10 14:34:52;;;;;;;0.65;0.40;;;;;;;;;;5116849;27;20019;-71
2021/06/10 14:37:18;;;;;;;0.60;0.60;;;;;;;;;;5117915;27;20106;-72
2021/06/10 14:39:45;;;;;;;2.17;0.80;;;;;;;;;;5117542;27;20031;-71
2021/06/10 14:42:12;;;;;;;1.30;0.68;;;;;;;;;;5134000;27;20495;-72
2021/06/10 14:44:39;;;;;;;1.42;0.90;;;;;;;;;;5135487;27;20030;-72
2021/06/10 14:47:05;;;;;;;0.98;0.80;;;;;;;;;;5115895;27;20054;-71
2021/06/10 14:49:31;;;;;;;0.88;0.75;;;;;;;;;;5130850;27;20076;-71
2021/06/10 14:51:58;;;;;;;2.30;0.90;;;;;;;;;;5135662;27;20019;-72
2021/06/10 14:54:24;;;;;;;2.00;0.80;;;;;;;;;;5135228;27;20023;-71
2021/06/10 14:56:50;;;;;;;2.45;0.93;;;;;;;;;;5116989;27;20027;-72
2021/06/10 14:59:17;;;;;;;1.13;0.88;;;;;;;;;;5135469;27;20581;-71
2021/06/10 15:01:43;;;;;;;2.97;1.17;;;;;;;;;;5135797;27;20024;-71
2021/06/10 15:04:09;;;;;;;2.55;1.23;;;;;;;;;;5135167;27;20088;-71
2021/06/10 15:06:35;;;;;;;2.08;1.08;;;;;;;;;;5135538;27;20374;-71
2021/06/10 15:09:02;;;;;;;1.40;1.15;;;;;;;;;;5116691;27;20108;-72
2021/06/10 15:11:28;;;;;;;1.63;1.00;;;;;;;;;;5116887;27;20531;-71
2021/06/10 15:13:54;;;;;;;1.88;1.30;;;;;;;;;;5135333;27;20076;-71
2021/06/10 15:16:20;;;;;;;2.03;1.33;;;;;;;;;;5135094;27;20383;-70
2021/06/10 15:18:47;;;;;;;2.50;1.48;;;;;;;;;;5135349;27;20027;-71
2021/06/10 15:21:13;;;;;;;2.25;1.10;;;;;;;;;;5135202;27;20372;-70
2021/06/10 15:23:39;;;;;;;2.72;1.10;;;;;;;;;;5134677;27;20425;-70
2021/06/10 15:26:07;;;;;;;1.23;0.93;;;;;;;;;;5135159;27;20098;-71
2021/06/10 15:28:33;;;;;;;2.10;0.95;;;;;;;;;;5135036;27;20436;-70
2021/06/10 15:30:59;;;;;;;1.33;1.02;;;;;;;;;;5134556;27;20023;-71
2021/06/10 15:33:26;;;;;;;2.05;1.20;;;;;;;;;;5116555;27;20039;-71
2021/06/10 15:35:52;;;;;;;1.80;0.90;;;;;;;;;;5134976;27;20068;-71
2021/06/10 15:38:18;;;;;;;1.88;0.93;;;;;;;;;;5116460;27;20052;-71
2021/06/10 15:40:45;;;;;;;2.80;0.98;;;;;;;;;;5134835;27;20100;-71
2021/06/10 15:43:11;;;;;;;1.58;0.90;;;;;;;;;;5116435;27;20019;-71
2021/06/10 15:45:37;;;;;;;3.00;1.05;;;;;;;;;;5133964;27;20110;-70
2021/06/10 15:48:04;;;;;;;2.30;0.88;;;;;;;;;;5134748;27;20023;-71
2021/06/10 15:50:30;;;;;;;2.95;1.13;;;;;;;;;;5134512;27;20383;-70
2021/06/10 15:52:57;;;;;;;3.10;0.73;;;;;;;;;;5134270;27;20517;-71
2021/06/10 15:55:23;;;;;;;0.75;0.70;;;;;;;;;;5134432;27;20024;-71
2021/06/10 15:57:50;;;;;;;1.73;0.70;;;;;;;;;;5134654;27;20023;-71
2021/06/10 16:00:16;;;;;;;9.40;1.65;;;;;;;;;;5133955;27;20051;-71
2021/06/10 16:02:46;;;;;;;1.95;1.20;;;;;;;;;;5115896;27;20031;-71
2021/06/10 16:05:15;;;;;;;3.90;1.65;;;;;;;;;;5133945;27;20424;-71
2021/06/10 16:07:42;;;;;;;0.85;0.63;;;;;;;;;;5134270;27;20025;-71
2021/06/10 16:10:08;;;;;;;3.92;1.67;;;;;;;;;;5133728;27;20023;-71
2021/06/10 16:12:34;;;;;;;1.58;0.80;;;;;;;;;;5133778;27;20027;-70
2021/06/10 16:15:00;;;;;;;0.73;0.60;;;;;;;;;;5115818;27;20130;-71
2021/06/10 16:17:27;;;;;;;1.10;0.88;;;;;;;;;;5115901;27;20019;-71
2021/06/10 16:19:53;;;;;;;1.00;0.63;;;;;;;;;;5133790;27;20027;-72
2021/06/10 16:22:19;;;;;;;1.80;0.70;;;;;;;;;;5115726;27;20023;-68
2021/06/10 16:24:47;;;;;;;3.15;1.17;;;;;;;;;;5134106;27;20024;-70
2021/06/10 16:27:13;;;;;;;1.48;1.02;;;;;;;;;;5133554;27;20030;-70